Time;durP1;ratioP1;P1;durP2;ratioP2;P2;SDS_P1;SDS_P2;PMS_P1;PMS_P2;Temp;Humidity;BMP_temperature;BMP_pressure;BME280_temperature;BME280_humidity;BME280_pressure;Samples;Min_cycle;Max_cycle;Signal;HPM_P1;HPM_P2
2022/07/31 00:01:10;;;;;;;;;;;19.40;99.90;;;;;;5056121;28;19951;-67
2022/07/31 00:03:36;;;;;;;;;;;19.30;99.90;;;;;;5073466;28;19912;-67
2022/07/31 00:06:01;;;;;;;;;;;19.20;99.90;;;;;;5073567;28;19915;-67
2022/07/31 00:08:27;;;;;;;;;;;19.10;99.90;;;;;;5073586;28;19915;-67
2022/07/31 00:10:52;;;;;;;;;;;19.00;99.90;;;;;;5055315;28;19923;-67
2022/07/31 00:13:17;;;;;;;;;;;19.00;99.90;;;;;;5073264;28;19908;-67
2022/07/31 00:15:43;;;;;;;;;;;18.90;99.90;;;;;;5055294;28;20423;-67
2022/07/31 00:18:08;;;;;;;;;;;18.90;99.90;;;;;;5073497;28;19916;-67
2022/07/31 00:20:34;;;;;;;;;;;18.90;99.90;;;;;;5073260;28;19940;-67
2022/07/31 00:22:59;;;;;;;;;;;18.90;99.90;;;;;;5073466;28;20363;-67
2022/07/31 00:25:25;;;;;;;;;;;18.90;99.90;;;;;;5073113;28;20007;-67
2022/07/31 00:27:51;;;;;;;;;;;18.90;99.90;;;;;;5055136;28;19912;-67
2022/07/31 00:30:16;;;;;;;;;;;18.90;99.90;;;;;;5073399;28;20321;-67
2022/07/31 00:32:42;;;;;;;;;;;18.80;99.90;;;;;;5055199;28;20012;-67
2022/07/31 00:35:08;;;;;;;;;;;18.80;99.90;;;;;;5073317;28;19956;-67
2022/07/31 00:37:35;;;;;;;;;;;18.90;99.90;;;;;;5073026;28;19963;-67
2022/07/31 00:40:01;;;;;;;;;;;18.90;99.90;;;;;;5073019;28;19915;-67
2022/07/31 00:42:26;;;;;;;;;;;18.90;99.90;;;;;;5073277;28;20414;-67
2022/07/31 00:44:52;;;;;;;;;;;18.90;99.90;;;;;;5055137;28;19955;-67
2022/07/31 00:47:18;;;;;;;;;;;18.90;99.90;;;;;;5072735;28;19920;-67
2022/07/31 00:49:44;;;;;;;;;;;18.90;99.90;;;;;;5055029;28;19908;-67
2022/07/31 00:52:10;;;;;;;;;;;18.90;99.90;;;;;;5054996;28;19916;-67
2022/07/31 00:54:35;;;;;;;;;;;18.80;99.90;;;;;;5075027;28;20367;-67
2022/07/31 00:57:01;;;;;;;;;;;18.70;99.90;;;;;;5076767;28;19919;-67
2022/07/31 00:59:27;;;;;;;;;;;18.70;99.90;;;;;;5076433;28;19915;-67
2022/07/31 01:01:53;;;;;;;;;;;18.60;99.90;;;;;;5076381;28;19958;-67
2022/07/31 01:04:18;;;;;;;;;;;18.60;99.90;;;;;;5076605;28;19908;-67
2022/07/31 01:06:44;;;;;;;;;;;18.50;99.90;;;;;;5076484;28;20363;-67
2022/07/31 01:09:10;;;;;;;;;;;18.50;99.90;;;;;;5076300;28;19914;-67
2022/07/31 01:11:38;;;;;;;;;;;18.40;99.90;;;;;;5076210;28;19913;-67
2022/07/31 01:14:05;;;;;;;;;;;18.40;99.90;;;;;;5076139;28;19909;-67
2022/07/31 01:16:34;;;;;;;;;;;18.20;99.90;;;;;;5076388;28;19916;-67
2022/07/31 01:19:03;;;;;;;;;;;18.10;99.90;;;;;;5058248;28;19915;-67
2022/07/31 01:21:34;;;;;;;;;;;18.10;99.90;;;;;;5076311;28;19998;-67
2022/07/31 01:24:20;;;;;;;;;;;18.00;99.90;;;;;;5076008;28;20026;-67
2022/07/31 01:26:49;;;;;;;;;;;17.90;99.90;;;;;;5075801;28;19916;-67
2022/07/31 01:29:19;;;;;;;;;;;17.80;99.90;;;;;;5076205;28;20373;-67
2022/07/31 01:31:48;;;;;;;;;;;17.60;99.90;;;;;;5075932;28;20047;-67
2022/07/31 01:34:19;;;;;;;;;;;17.60;99.90;;;;;;5076088;28;19909;-67
2022/07/31 01:36:48;;;;;;;;;;;17.50;99.90;;;;;;5076072;28;19924;-67
2022/07/31 01:39:14;;;;;;;;;;;17.40;99.90;;;;;;5075686;28;19908;-67
2022/07/31 01:41:41;;;;;;;;;;;17.30;99.90;;;;;;5075637;28;19916;-67
2022/07/31 01:44:08;;;;;;;;;;;17.20;99.90;;;;;;5075629;28;20000;-67
2022/07/31 01:46:34;;;;;;;;;;;17.10;99.90;;;;;;5075397;28;19928;-67
2022/07/31 01:49:01;;;;;;;;;;;17.00;99.90;;;;;;5057926;28;20307;-67
2022/07/31 01:51:27;;;;;;;;;;;17.00;99.90;;;;;;5075784;28;19940;-67
2022/07/31 01:53:54;;;;;;;;;;;16.90;99.90;;;;;;5075443;28;19909;-67
2022/07/31 01:56:20;;;;;;;;;;;16.90;99.90;;;;;;5075374;28;20016;-67
2022/07/31 01:58:46;;;;;;;;;;;16.80;99.90;;;;;;5075324;28;19913;-67
2022/07/31 02:01:12;;;;;;;;;;;16.80;99.90;;;;;;5075294;28;19916;-67
2022/07/31 02:03:38;;;;;;;;;;;16.70;99.90;;;;;;5075526;28;19908;-67
2022/07/31 02:06:04;;;;;;;;;;;16.70;99.90;;;;;;5075196;28;19940;-67
2022/07/31 02:08:30;;;;;;;;;;;16.60;99.90;;;;;;5075155;28;19978;-67
2022/07/31 02:10:56;;;;;;;;;;;16.60;99.90;;;;;;5075093;28;19912;-67
2022/07/31 02:13:22;;;;;;;;;;;16.60;99.90;;;;;;5075019;28;19916;-67
2022/07/31 02:15:49;;;;;;;;;;;16.50;99.90;;;;;;5074984;28;19947;-67
2022/07/31 02:18:14;;;;;;;;;;;16.50;99.90;;;;;;5057139;28;20471;-67
2022/07/31 02:20:40;;;;;;;;;;;16.40;99.90;;;;;;5074918;28;19908;-67
2022/07/31 02:23:06;;;;;;;;;;;16.40;99.90;;;;;;5075101;28;19913;-67
2022/07/31 02:25:34;;;;;;;;;;;16.40;99.90;;;;;;5075076;28;20004;-67
2022/07/31 02:28:01;;;;;;;;;;;16.30;99.90;;;;;;5074656;28;19913;-66
2022/07/31 02:30:29;;;;;;;;;;;16.30;99.90;;;;;;5074656;28;19916;-67
2022/07/31 02:32:55;;;;;;;;;;;16.40;99.90;;;;;;5074640;28;19914;-67
2022/07/31 02:35:21;;;;;;;;;;;16.50;99.90;;;;;;5074888;28;20003;-66
2022/07/31 02:37:49;;;;;;;;;;;16.50;99.90;;;;;;5074528;28;19930;-67
2022/07/31 02:40:15;;;;;;;;;;;16.60;99.90;;;;;;5074510;28;20011;-67
2022/07/31 02:42:41;;;;;;;;;;;16.60;99.90;;;;;;5074451;28;19961;-67
2022/07/31 02:45:08;;;;;;;;;;;16.60;99.90;;;;;;5074659;28;19908;-67
2022/07/31 02:47:33;;;;;;;;;;;16.60;99.90;;;;;;5074184;28;20324;-67
2022/07/31 02:49:59;;;;;;;;;;;16.60;99.90;;;;;;5074528;28;19909;-67
2022/07/31 02:52:25;;;;;;;;;;;16.60;99.90;;;;;;5074566;28;20359;-67
2022/07/31 02:54:51;;;;;;;;;;;16.60;99.90;;;;;;5074475;28;19912;-67
2022/07/31 02:57:17;;;;;;;;;;;16.60;99.90;;;;;;5074477;28;19915;-67
2022/07/31 02:59:43;;;;;;;;;;;16.60;99.90;;;;;;5074376;28;19913;-67
2022/07/31 03:02:09;;;;;;;;;;;16.50;99.90;;;;;;5074358;28;19908;-67
2022/07/31 03:04:35;;;;;;;;;;;16.40;99.90;;;;;;5074139;28;19954;-67
2022/07/31 03:07:01;;;;;;;;;;;16.40;99.90;;;;;;5074209;28;20385;-66
2022/07/31 03:09:26;;;;;;;;;;;16.30;99.90;;;;;;5073986;28;20437;-67
2022/07/31 03:11:52;;;;;;;;;;;16.30;99.90;;;;;;5073992;28;19915;-67
2022/07/31 03:14:18;;;;;;;;;;;16.20;99.90;;;;;;5074160;28;19958;-67
2022/07/31 03:16:45;;;;;;;;;;;16.20;99.90;;;;;;5073769;28;20278;-67
2022/07/31 03:19:11;;;;;;;;;;;16.20;99.90;;;;;;5073896;28;19916;-67
2022/07/31 03:21:37;;;;;;;;;;;16.10;99.90;;;;;;5073928;28;19908;-66
2022/07/31 03:24:03;;;;;;;;;;;16.10;99.90;;;;;;5073839;28;20066;-66
2022/07/31 03:26:28;;;;;;;;;;;16.10;99.90;;;;;;5073664;28;19913;-67
2022/07/31 03:28:54;;;;;;;;;;;16.10;99.90;;;;;;5073702;28;19915;-67
2022/07/31 03:31:20;;;;;;;;;;;16.10;99.90;;;;;;5073740;28;19947;-67
2022/07/31 03:33:45;;;;;;;;;;;16.10;99.90;;;;;;5073684;28;19920;-67
2022/07/31 03:36:11;;;;;;;;;;;16.10;99.90;;;;;;5073972;28;19974;-66
2022/07/31 03:38:37;;;;;;;;;;;16.00;99.90;;;;;;5073598;28;20259;-66
2022/07/31 03:41:02;;;;;;;;;;;16.00;99.90;;;;;;5073881;28;19916;-66
2022/07/31 03:43:29;;;;;;;;;;;15.90;99.90;;;;;;5073853;28;19909;-66
2022/07/31 03:45:55;;;;;;;;;;;15.90;99.90;;;;;;5073366;28;19917;-66
2022/07/31 03:48:21;;;;;;;;;;;15.90;99.90;;;;;;5073728;28;20007;-66
2022/07/31 03:50:47;;;;;;;;;;;16.00;99.90;;;;;;5073510;28;19955;-66
2022/07/31 03:53:13;;;;;;;;;;;16.00;99.90;;;;;;5073435;28;19916;-66
2022/07/31 03:55:38;;;;;;;;;;;16.10;99.90;;;;;;5073476;28;19909;-66
2022/07/31 03:58:05;;;;;;;;;;;16.10;99.90;;;;;;5073720;28;19912;-66
2022/07/31 04:00:31;;;;;;;;;;;16.20;99.90;;;;;;5073403;28;19964;-66
2022/07/31 04:02:57;;;;;;;;;;;16.30;99.90;;;;;;5073349;28;20363;-66
2022/07/31 04:05:23;;;;;;;;;;;16.40;99.90;;;;;;5073655;28;20002;-66
2022/07/31 04:07:49;;;;;;;;;;;16.50;99.90;;;;;;5073560;28;19916;-66
2022/07/31 04:10:15;;;;;;;;;;;16.50;99.90;;;;;;5073606;28;20411;-67
2022/07/31 04:12:40;;;;;;;;;;;16.60;99.90;;;;;;5073593;28;19940;-67
2022/07/31 04:15:06;;;;;;;;;;;16.70;99.90;;;;;;5073277;28;20374;-66
2022/07/31 04:17:31;;;;;;;;;;;16.70;99.90;;;;;;5073244;28;19909;-67
2022/07/31 04:19:57;;;;;;;;;;;16.80;99.90;;;;;;5073518;28;20378;-67
2022/07/31 04:22:22;;;;;;;;;;;16.90;99.90;;;;;;5073235;28;19909;-67
2022/07/31 04:24:48;;;;;;;;;;;16.90;99.90;;;;;;5073448;28;20282;-67
2022/07/31 04:27:17;;;;;;;;;;;17.00;99.90;;;;;;5073335;28;19912;-67
2022/07/31 04:29:43;;;;;;;;;;;17.00;99.90;;;;;;5075595;28;19920;-67
2022/07/31 04:32:08;;;;;;;;;;;17.00;99.90;;;;;;5077256;28;19909;-67
2022/07/31 04:34:34;;;;;;;;;;;17.10;99.90;;;;;;5077179;28;19913;-67
2022/07/31 04:37:00;;;;;;;;;;;17.10;99.90;;;;;;5077139;28;19966;-67
2022/07/31 04:39:25;;;;;;;;;;;17.20;99.90;;;;;;5058973;28;19913;-67
2022/07/31 04:41:51;;;;;;;;;;;17.20;99.90;;;;;;5076768;28;19909;-67
2022/07/31 04:44:16;;;;;;;;;;;17.30;99.90;;;;;;5076727;28;19908;-67
2022/07/31 04:46:42;;;;;;;;;;;17.40;99.90;;;;;;5076405;28;20006;-67
2022/07/31 04:49:11;;;;;;;;;;;17.40;99.90;;;;;;5059190;28;20007;-67
2022/07/31 04:51:37;;;;;;;;;;;17.40;99.90;;;;;;5076855;28;20315;-67
2022/07/31 04:54:02;;;;;;;;;;;17.40;99.90;;;;;;5076857;28;19970;-67
2022/07/31 04:56:36;;;;;;;;;;;17.50;99.90;;;;;;5076530;28;20049;-67
2022/07/31 04:59:04;;;;;;;;;;;17.50;99.90;;;;;;5076750;28;19908;-67
2022/07/31 05:01:29;;;;;;;;;;;17.50;99.90;;;;;;5076396;28;19909;-67
2022/07/31 05:03:55;;;;;;;;;;;17.60;99.90;;;;;;5058529;28;19935;-67
2022/07/31 05:06:21;;;;;;;;;;;17.60;99.90;;;;;;5076286;28;20378;-67
2022/07/31 05:08:46;;;;;;;;;;;17.70;99.90;;;;;;5076581;28;19915;-67
2022/07/31 05:11:27;;;;;;;;;;;17.80;99.90;;;;;;5076557;28;19912;-67
2022/07/31 05:13:55;;;;;;;;;;;17.80;99.90;;;;;;5058358;28;19908;-67
2022/07/31 05:16:21;;;;;;;;;;;17.90;99.90;;;;;;5076435;28;19955;-67
2022/07/31 05:18:47;;;;;;;;;;;18.00;99.90;;;;;;5076408;28;19963;-68
2022/07/31 05:21:14;;;;;;;;;;;18.10;99.90;;;;;;5076376;28;20003;-67
2022/07/31 05:23:40;;;;;;;;;;;18.10;99.90;;;;;;5076304;28;20346;-67
2022/07/31 05:26:06;;;;;;;;;;;18.20;99.90;;;;;;5076060;28;19913;-67
2022/07/31 05:28:31;;;;;;;;;;;18.30;99.90;;;;;;5058009;28;19957;-67
2022/07/31 05:30:57;;;;;;;;;;;18.30;99.90;;;;;;5057947;28;19991;-67
2022/07/31 05:33:22;;;;;;;;;;;18.40;99.90;;;;;;5076099;28;19908;-67
2022/07/31 05:35:48;;;;;;;;;;;18.40;99.90;;;;;;5075847;28;19908;-67
2022/07/31 05:38:13;;;;;;;;;;;18.40;99.90;;;;;;5075875;28;19908;-67
2022/07/31 05:40:39;;;;;;;;;;;18.50;99.90;;;;;;5075392;28;20385;-67
2022/07/31 05:43:04;;;;;;;;;;;18.50;99.90;;;;;;5075721;28;19912;-67
2022/07/31 05:45:38;;;;;;;;;;;18.60;99.90;;;;;;5075476;28;19916;-67
2022/07/31 05:48:04;;;;;;;;;;;18.70;99.90;;;;;;5075813;28;19977;-67
2022/07/31 05:50:30;;;;;;;;;;;18.70;99.90;;;;;;5075470;28;19966;-67
2022/07/31 05:52:56;;;;;;;;;;;18.80;99.90;;;;;;5057578;28;19916;-67
2022/07/31 05:55:21;;;;;;;;;;;18.90;99.90;;;;;;5075511;28;20359;-67
2022/07/31 05:57:47;;;;;;;;;;;19.10;99.90;;;;;;5075356;28;20033;-67
2022/07/31 06:00:13;;;;;;;;;;;19.20;99.90;;;;;;5075271;28;19909;-67
2022/07/31 06:02:38;;;;;;;;;;;19.20;99.90;;;;;;5075548;28;19912;-67
2022/07/31 06:05:04;;;;;;;;;;;19.20;99.90;;;;;;5075263;28;19909;-67
2022/07/31 06:07:29;;;;;;;;;;;19.40;99.90;;;;;;5075114;28;20279;-67
2022/07/31 06:09:55;;;;;;;;;;;19.50;99.90;;;;;;5075441;28;19985;-67
2022/07/31 06:12:20;;;;;;;;;;;19.70;99.90;;;;;;5075071;28;20430;-67
2022/07/31 06:14:46;;;;;;;;;;;19.80;99.90;;;;;;5075292;28;19908;-68
2022/07/31 06:17:11;;;;;;;;;;;20.00;99.90;;;;;;5075086;28;20007;-67
2022/07/31 06:19:37;;;;;;;;;;;20.10;99.90;;;;;;5074954;28;20287;-67
2022/07/31 06:22:02;;;;;;;;;;;20.20;99.90;;;;;;5075185;28;19962;-67
2022/07/31 06:24:28;;;;;;;;;;;20.20;99.90;;;;;;5075120;28;19909;-67
2022/07/31 06:26:57;;;;;;;;;;;20.20;99.90;;;;;;5074744;28;19913;-67
2022/07/31 06:29:22;;;;;;;;;;;20.20;99.90;;;;;;5075049;28;20371;-67
2022/07/31 06:31:48;;;;;;;;;;;20.20;99.90;;;;;;5074949;28;19948;-67
2022/07/31 06:34:13;;;;;;;;;;;20.30;99.90;;;;;;5074933;28;20256;-67
2022/07/31 06:36:39;;;;;;;;;;;20.20;99.90;;;;;;5074587;28;19908;-67
2022/07/31 06:39:04;;;;;;;;;;;20.20;99.90;;;;;;5074780;28;19909;-67
2022/07/31 06:42:01;;;;;;;;;;;20.20;99.90;;;;;;5074484;28;19944;-67
2022/07/31 06:44:16;;;;;;;;;;;20.20;99.90;;;;;;5074346;28;19913;-67
2022/07/31 06:46:42;;;;;;;;;;;20.10;99.90;;;;;;5074298;28;19924;-67
2022/07/31 06:49:08;;;;;;;;;;;20.00;99.90;;;;;;5056808;28;19909;-67
2022/07/31 06:51:33;;;;;;;;;;;19.90;99.90;;;;;;5073654;28;20447;-67
2022/07/31 06:54:00;;;;;;;;;;;20.00;99.90;;;;;;5074519;28;19908;-67
2022/07/31 06:56:26;;;;;;;;;;;20.20;99.90;;;;;;5074493;28;19966;-67
2022/07/31 06:58:52;;;;;;;;;;;20.40;99.90;;;;;;5074279;28;19908;-67
2022/07/31 07:01:17;;;;;;;;;;;20.60;99.90;;;;;;5056601;28;19908;-67
2022/07/31 07:03:43;;;;;;;;;;;20.60;99.90;;;;;;5074222;28;20363;-67
2022/07/31 07:06:08;;;;;;;;;;;20.70;99.90;;;;;;5074016;28;19999;-67
2022/07/31 07:08:33;;;;;;;;;;;20.90;99.90;;;;;;5074276;28;19908;-67
2022/07/31 07:10:59;;;;;;;;;;;21.00;99.90;;;;;;5073958;28;20329;-67
2022/07/31 07:13:25;;;;;;;;;;;20.90;99.90;;;;;;5073970;28;19923;-67
2022/07/31 07:15:50;;;;;;;;;;;21.00;99.90;;;;;;5073928;28;19908;-67
2022/07/31 07:18:16;;;;;;;;;;;21.10;99.90;;;;;;5074159;28;19913;-67
2022/07/31 07:20:41;;;;;;;;;;;21.20;99.90;;;;;;5056025;28;19956;-67
2022/07/31 07:23:07;;;;;;;;;;;21.30;99.90;;;;;;5074100;28;19915;-67
2022/07/31 07:25:32;;;;;;;;;;;21.40;99.90;;;;;;5074069;28;20305;-67
2022/07/31 07:27:58;;;;;;;;;;;21.50;99.90;;;;;;5055708;28;19917;-67
2022/07/31 07:30:27;;;;;;;;;;;21.60;99.90;;;;;;5073695;28;19909;-67
2022/07/31 07:32:52;;;;;;;;;;;21.90;99.90;;;;;;5074007;28;19912;-67
2022/07/31 07:35:18;;;;;;;;;;;22.20;99.90;;;;;;5073707;28;20377;-67
2022/07/31 07:37:44;;;;;;;;;;;22.80;99.90;;;;;;5073679;28;20306;-67
2022/07/31 07:40:09;;;;;;;;;;;23.30;99.90;;;;;;5073601;28;20430;-67
2022/07/31 07:42:35;;;;;;;;;;;24.00;99.90;;;;;;5073563;28;19916;-67
2022/07/31 07:45:00;;;;;;;;;;;24.00;99.90;;;;;;5073540;28;20256;-67
2022/07/31 07:47:26;;;;;;;;;;;23.70;99.90;;;;;;5073349;28;20011;-67
2022/07/31 07:49:51;;;;;;;;;;;23.70;99.90;;;;;;5073786;28;19909;-67
2022/07/31 07:52:17;;;;;;;;;;;23.40;99.90;;;;;;5055648;28;19996;-67
2022/07/31 07:54:42;;;;;;;;;;;23.30;99.90;;;;;;5073732;28;20355;-67
2022/07/31 07:57:08;;;;;;;;;;;23.60;99.90;;;;;;5073721;28;19909;-67
2022/07/31 07:59:34;;;;;;;;;;;23.50;99.90;;;;;;5073425;28;20351;-67
2022/07/31 08:01:59;;;;;;;;;;;23.50;99.90;;;;;;5055763;28;19909;-67
2022/07/31 08:04:25;;;;;;;;;;;23.70;99.90;;;;;;5077221;28;20446;-67
2022/07/31 08:06:50;;;;;;;;;;;23.80;99.90;;;;;;5077420;28;20287;-67
2022/07/31 08:09:16;;;;;;;;;;;24.20;99.90;;;;;;5077728;28;19974;-67
2022/07/31 08:11:41;;;;;;;;;;;24.50;99.90;;;;;;5077718;28;19962;-67
2022/07/31 08:14:07;;;;;;;;;;;24.50;99.90;;;;;;5077380;28;19971;-67
2022/07/31 08:16:32;;;;;;;;;;;24.60;99.90;;;;;;5077344;28;19947;-67
2022/07/31 08:18:58;;;;;;;;;;;24.40;99.90;;;;;;5059287;28;20385;-67
2022/07/31 08:21:23;;;;;;;;;;;24.50;99.90;;;;;;5077530;28;19912;-67
2022/07/31 08:23:49;;;;;;;;;;;24.50;99.90;;;;;;5077253;28;19999;-67
2022/07/31 08:26:16;;;;;;;;;;;24.60;99.90;;;;;;5076949;28;19908;-67
2022/07/31 08:28:41;;;;;;;;;;;24.50;99.90;;;;;;5077039;28;19954;-67
2022/07/31 08:31:07;;;;;;;;;;;24.60;99.90;;;;;;5076994;28;19912;-67
2022/07/31 08:33:32;;;;;;;;;;;24.60;99.90;;;;;;5077235;28;19958;-67
2022/07/31 08:35:58;;;;;;;;;;;24.40;99.90;;;;;;5058969;28;20003;-67
2022/07/31 08:38:23;;;;;;;;;;;24.50;99.90;;;;;;5076877;28;20316;-67
2022/07/31 08:40:49;;;;;;;;;;;24.50;99.90;;;;;;5077077;28;19916;-67
2022/07/31 08:43:14;;;;;;;;;;;24.40;99.90;;;;;;5077068;28;19962;-67
2022/07/31 08:45:41;;;;;;;;;;;24.80;99.90;;;;;;5076576;28;19913;-67
2022/07/31 08:48:07;;;;;;;;;;;25.20;99.90;;;;;;5076823;28;19916;-67
2022/07/31 08:50:33;;;;;;;;;;;25.50;99.90;;;;;;5076696;28;19908;-67
2022/07/31 08:52:59;;;;;;;;;;;25.00;99.90;;;;;;5076569;28;19913;-67
2022/07/31 08:55:25;;;;;;;;;;;24.70;99.90;;;;;;5076599;28;19915;-67
2022/07/31 08:57:50;;;;;;;;;;;24.50;99.90;;;;;;5076592;28;19915;-67
2022/07/31 09:00:18;;;;;;;;;;;24.40;99.90;;;;;;5076788;28;20006;-67
2022/07/31 09:02:43;;;;;;;;;;;23.80;99.90;;;;;;5076466;28;20001;-67
2022/07/31 09:05:09;;;;;;;;;;;23.80;99.90;;;;;;5076732;28;19943;-67
2022/07/31 09:07:34;;;;;;;;;;;23.50;99.90;;;;;;5076576;28;20346;-67
2022/07/31 09:10:01;;;;;;;;;;;23.40;99.90;;;;;;5076306;28;19909;-67
2022/07/31 09:12:27;;;;;;;;;;;23.50;99.90;;;;;;5076543;28;20412;-67
2022/07/31 09:14:52;;;;;;;;;;;23.60;99.90;;;;;;5057692;28;19912;-67
2022/07/31 09:17:29;;;;;;;;;;;23.50;99.90;;;;;;5076455;28;19973;-67
2022/07/31 09:19:54;;;;;;;;;;;23.30;99.90;;;;;;5076308;28;19909;-67
2022/07/31 09:22:22;;;;;;;;;;;23.30;99.90;;;;;;5076096;28;19916;-67
2022/07/31 09:24:48;;;;;;;;;;;23.40;99.90;;;;;;5076090;28;19909;-67
2022/07/31 09:27:16;;;;;;;;;;;23.60;99.90;;;;;;5076223;28;19927;-67
2022/07/31 09:29:43;;;;;;;;;;;23.50;99.90;;;;;;5076231;28;19947;-67
2022/07/31 09:32:09;;;;;;;;;;;23.40;99.90;;;;;;5058492;28;20355;-67
2022/07/31 09:34:35;;;;;;;;;;;23.40;99.90;;;;;;5076164;28;19913;-67
2022/07/31 09:37:17;;;;;;;;;;;23.40;99.90;;;;;;5076100;28;20380;-67
2022/07/31 09:39:50;;;;;;;;;;;23.30;99.90;;;;;;5076068;28;20375;-67
2022/07/31 09:42:16;;;;;;;;;;;23.40;99.90;;;;;;5075899;28;19948;-67
2022/07/31 09:44:42;;;;;;;;;;;23.40;99.90;;;;;;5075930;28;19951;-67
2022/07/31 09:47:28;;;;;;;;;;;23.10;99.90;;;;;;5075532;28;19921;-67
2022/07/31 09:49:57;;;;;;;;;;;23.20;99.90;;;;;;5075672;28;20435;-67
2022/07/31 09:52:23;;;;;;;;;;;23.10;99.90;;;;;;5075959;28;19915;-67
2022/07/31 09:54:58;;;;;;;;;;;23.30;99.90;;;;;;5075761;28;20282;-67
2022/07/31 09:57:24;;;;;;;;;;;23.40;99.90;;;;;;5075452;28;19915;-68
2022/07/31 09:59:50;;;;;;;;;;;23.50;99.90;;;;;;5075432;28;20428;-67
2022/07/31 10:02:17;;;;;;;;;;;23.40;99.90;;;;;;5075350;28;19995;-67
2022/07/31 10:04:45;;;;;;;;;;;23.60;99.90;;;;;;5075335;28;19920;-67
2022/07/31 10:07:11;;;;;;;;;;;23.40;99.90;;;;;;5075256;28;20355;-68
2022/07/31 10:09:41;;;;;;;;;;;23.50;99.90;;;;;;5075446;28;19908;-67
2022/07/31 10:12:09;;;;;;;;;;;23.70;99.90;;;;;;5075150;28;19913;-68
2022/07/31 10:14:39;;;;;;;;;;;23.60;99.90;;;;;;5074974;28;20472;-68
2022/07/31 10:17:04;;;;;;;;;;;23.40;99.90;;;;;;5075251;28;19920;-68
2022/07/31 10:19:33;;;;;;;;;;;23.40;99.90;;;;;;5075229;28;19908;-68
2022/07/31 10:22:02;;;;;;;;;;;23.30;99.90;;;;;;5074868;28;19908;-68
2022/07/31 10:24:30;;;;;;;;;;;23.30;99.90;;;;;;5075114;28;19999;-68
2022/07/31 10:26:57;;;;;;;;;;;23.30;99.90;;;;;;5039191;28;20123;-68
2022/07/31 10:29:23;;;;;;;;;;;23.20;99.90;;;;;;5075010;28;20301;-69
2022/07/31 10:31:49;;;;;;;;;;;23.20;99.90;;;;;;5056897;28;19908;-67
2022/07/31 10:34:15;;;;;;;;;;;23.60;99.90;;;;;;5074961;28;20000;-67
2022/07/31 10:36:43;;;;;;;;;;;23.60;99.90;;;;;;5074889;28;19948;-67
2022/07/31 10:39:30;;;;;;;;;;;23.60;99.90;;;;;;5056661;28;19908;-67
2022/07/31 10:42:15;;;;;;;;;;;23.40;99.90;;;;;;5074473;28;19991;-67
2022/07/31 10:44:44;;;;;;;;;;;23.50;99.90;;;;;;5074356;28;20404;-67
2022/07/31 10:47:10;;;;;;;;;;;23.50;99.90;;;;;;5074183;28;19921;-67
2022/07/31 10:49:37;;;;;;;;;;;23.70;99.90;;;;;;5074391;28;19919;-67
2022/07/31 10:52:02;;;;;;;;;;;24.00;99.90;;;;;;5074603;28;20367;-67
2022/07/31 10:54:36;;;;;;;;;;;24.20;99.90;;;;;;5074601;28;19997;-67
2022/07/31 10:57:02;;;;;;;;;;;24.30;99.90;;;;;;5074233;28;19916;-67
2022/07/31 10:59:28;;;;;;;;;;;24.10;99.90;;;;;;5074158;28;20362;-67
2022/07/31 11:01:53;;;;;;;;;;;24.10;99.90;;;;;;5074199;28;19909;-67
2022/07/31 11:04:30;;;;;;;;;;;24.00;99.90;;;;;;5074137;28;19951;-67
2022/07/31 11:06:56;;;;;;;;;;;24.20;99.90;;;;;;5074286;28;19928;-67
2022/07/31 11:09:23;;;;;;;;;;;24.30;99.90;;;;;;5074026;28;20309;-67
2022/07/31 11:11:48;;;;;;;;;;;24.20;99.90;;;;;;5074273;28;19944;-67
2022/07/31 11:14:14;;;;;;;;;;;23.90;99.90;;;;;;5074226;28;19908;-68
2022/07/31 11:16:54;;;;;;;;;;;24.00;99.90;;;;;;5055951;28;19908;-67
2022/07/31 11:19:20;;;;;;;;;;;24.10;99.90;;;;;;5074131;28;19916;-67
2022/07/31 11:21:46;;;;;;;;;;;24.10;99.90;;;;;;5073839;28;20282;-67
2022/07/31 11:24:13;;;;;;;;;;;24.10;99.90;;;;;;5073908;28;19908;-67
2022/07/31 11:26:56;;;;;;;;;;;24.10;99.90;;;;;;5074008;28;19920;-67
2022/07/31 11:29:31;;;;;;;;;;;24.40;99.90;;;;;;5073609;28;19919;-67
2022/07/31 11:31:59;;;;;;;;;;;24.60;99.90;;;;;;5073970;28;20358;-67
2022/07/31 11:34:24;;;;;;;;;;;24.40;99.90;;;;;;5073953;28;20362;-67
2022/07/31 11:36:50;;;;;;;;;;;24.60;99.90;;;;;;5073925;28;19923;-68
2022/07/31 11:39:15;;;;;;;;;;;24.70;99.90;;;;;;5073587;28;19934;-67
2022/07/31 11:41:41;;;;;;;;;;;25.20;99.90;;;;;;5073659;28;19963;-67
2022/07/31 11:44:07;;;;;;;;;;;24.90;99.90;;;;;;5073832;28;19908;-68
2022/07/31 11:46:33;;;;;;;;;;;25.20;99.90;;;;;;5073309;28;20268;-68
2022/07/31 11:49:01;;;;;;;;;;;25.40;99.90;;;;;;5073098;28;21371;-67
2022/07/31 11:51:26;;;;;;;;;;;25.40;99.90;;;;;;5073538;28;19917;-67
2022/07/31 11:53:54;;;;;;;;;;;25.50;99.90;;;;;;5073534;28;19915;-67
2022/07/31 11:56:20;;;;;;;;;;;26.00;99.90;;;;;;5073512;28;19915;-67
2022/07/31 11:58:47;;;;;;;;;;;25.70;99.90;;;;;;5073460;28;20424;-67
2022/07/31 12:01:12;;;;;;;;;;;25.50;99.90;;;;;;5073505;28;19908;-67
2022/07/31 12:03:38;;;;;;;;;;;25.30;99.90;;;;;;5073382;28;19909;-68
2022/07/31 12:06:04;;;;;;;;;;;25.50;99.90;;;;;;5073652;28;19914;-67
2022/07/31 12:08:30;;;;;;;;;;;25.00;99.90;;;;;;5073279;28;19912;-67
2022/07/31 12:10:56;;;;;;;;;;;24.90;99.90;;;;;;5055787;28;19919;-67
2022/07/31 12:13:23;;;;;;;;;;;25.10;99.90;;;;;;5073624;28;19908;-68
2022/07/31 12:16:06;;;;;;;;;;;24.80;99.90;;;;;;5073589;28;19909;-67
2022/07/31 12:18:44;;;;;;;;;;;24.80;99.90;;;;;;5073284;28;19908;-67
2022/07/31 12:21:10;;;;;;;;;;;24.70;99.90;;;;;;5073479;28;20003;-68
2022/07/31 12:23:38;;;;;;;;;;;24.50;99.90;;;;;;5073233;28;19996;-67
2022/07/31 12:26:03;;;;;;;;;;;24.40;99.90;;;;;;5073367;28;20386;-67
2022/07/31 12:28:29;;;;;;;;;;;24.40;99.90;;;;;;5073088;28;19913;-67
2022/07/31 12:30:57;;;;;;;;;;;24.70;99.90;;;;;;5055190;28;19955;-67
2022/07/31 12:33:22;;;;;;;;;;;24.80;99.90;;;;;;5073356;28;20358;-67
2022/07/31 12:35:48;;;;;;;;;;;24.80;99.90;;;;;;5073150;28;19916;-67
2022/07/31 12:38:21;;;;;;;;;;;25.10;99.90;;;;;;5073144;28;19916;-67
2022/07/31 12:40:47;;;;;;;;;;;25.20;99.90;;;;;;5073137;28;19913;-67
2022/07/31 12:43:12;;;;;;;;;;;25.20;99.90;;;;;;5073308;28;19958;-67
2022/07/31 12:45:38;;;;;;;;;;;25.00;99.90;;;;;;5073076;28;19930;-67
2022/07/31 12:48:04;;;;;;;;;;;25.30;99.90;;;;;;5073214;28;19923;-67
2022/07/31 12:50:31;;;;;;;;;;;25.40;99.90;;;;;;5074627;28;19909;-67
2022/07/31 12:52:59;;;;;;;;;;;25.10;99.90;;;;;;5076926;28;19963;-67
2022/07/31 12:55:24;;;;;;;;;;;24.90;99.90;;;;;;5076570;28;19908;-67
2022/07/31 12:57:50;;;;;;;;;;;24.70;99.90;;;;;;5076518;28;19909;-67
2022/07/31 13:00:17;;;;;;;;;;;24.40;99.90;;;;;;5076835;28;19913;-67
2022/07/31 13:02:43;;;;;;;;;;;24.10;99.90;;;;;;5076748;28;19909;-67
2022/07/31 13:05:09;;;;;;;;;;;24.00;99.90;;;;;;5076668;28;20370;-67
2022/07/31 13:07:35;;;;;;;;;;;24.10;99.90;;;;;;5076280;28;20011;-68
2022/07/31 13:10:00;;;;;;;;;;;24.10;99.90;;;;;;5076377;28;19908;-67
2022/07/31 13:12:26;;;;;;;;;;;24.20;99.90;;;;;;5076527;28;19912;-67
2022/07/31 13:14:51;;;;;;;;;;;24.10;99.90;;;;;;5058291;28;20004;-67
2022/07/31 13:17:17;;;;;;;;;;;24.00;99.90;;;;;;5076495;28;19909;-67
2022/07/31 13:19:42;;;;;;;;;;;23.90;99.90;;;;;;5076203;28;19919;-67
2022/07/31 13:22:08;;;;;;;;;;;24.30;99.90;;;;;;5076139;28;19915;-67
2022/07/31 13:24:34;;;;;;;;;;;24.50;99.90;;;;;;5076128;28;19908;-68
2022/07/31 13:27:00;;;;;;;;;;;24.60;99.90;;;;;;5075964;28;19920;-67
2022/07/31 13:29:25;;;;;;;;;;;24.90;99.90;;;;;;5076013;28;19908;-67
2022/07/31 13:31:51;;;;;;;;;;;24.80;99.90;;;;;;5076211;28;19943;-67
2022/07/31 13:34:16;;;;;;;;;;;24.80;99.90;;;;;;5076160;28;19913;-68
2022/07/31 13:36:42;;;;;;;;;;;24.90;99.90;;;;;;5075829;28;20394;-69
2022/07/31 13:39:07;;;;;;;;;;;24.90;99.90;;;;;;5057870;28;19916;-67
2022/07/31 13:41:34;;;;;;;;;;;25.10;99.90;;;;;;5076016;28;20282;-67
2022/07/31 13:44:00;;;;;;;;;;;25.20;99.90;;;;;;5076004;28;19908;-68
2022/07/31 13:46:25;;;;;;;;;;;25.40;99.90;;;;;;5075384;28;19921;-67
2022/07/31 13:48:52;;;;;;;;;;;25.70;99.90;;;;;;5075857;28;19912;-68
2022/07/31 13:51:17;;;;;;;;;;;25.40;99.90;;;;;;5075527;28;19908;-67
2022/07/31 13:53:43;;;;;;;;;;;25.20;99.90;;;;;;5075562;28;20007;-67
2022/07/31 13:56:09;;;;;;;;;;;25.20;99.90;;;;;;5075290;28;19909;-68
2022/07/31 13:58:35;;;;;;;;;;;25.20;99.90;;;;;;5075710;28;20397;-68
2022/07/31 14:01:01;;;;;;;;;;;24.90;99.90;;;;;;5075390;28;19936;-67
2022/07/31 14:03:26;;;;;;;;;;;24.70;99.90;;;;;;5075399;28;19912;-67
2022/07/31 14:05:52;;;;;;;;;;;24.80;99.90;;;;;;5075285;28;19909;-68
2022/07/31 14:08:18;;;;;;;;;;;24.90;99.90;;;;;;5075423;28;19999;-67
2022/07/31 14:10:44;;;;;;;;;;;24.90;99.90;;;;;;5075221;28;19915;-67
2022/07/31 14:13:10;;;;;;;;;;;24.60;99.90;;;;;;5075115;28;19908;-67